Time;durP1;ratioP1;P1;durP2;ratioP2;P2;SDS_P1;SDS_P2;PMS_P1;PMS_P2;Temp;Humidity;BMP_temperature;BMP_pressure;BME280_temperature;BME280_humidity;BME280_pressure;Samples;Min_cycle;Max_cycle;Signal;HPM_P1;HPM_P2
2021/11/25 00:02:08;;;;;;;1.90;1.73;;;8.50;1.00;;;;;;4972343;28;20324;-73
2021/11/25 00:04:35;;;;;;;2.30;1.80;;;8.50;1.00;;;;;;4972073;28;20202;-69
2021/11/25 00:07:03;;;;;;;2.57;2.10;;;8.50;1.00;;;;;;4972314;28;20237;-68
2021/11/25 00:09:30;;;;;;;2.27;2.07;;;8.50;1.00;;;;;;4971790;28;20214;-68
2021/11/25 00:11:57;;;;;;;3.10;2.53;;;8.50;1.00;;;;;;4971972;28;20280;-73
2021/11/25 00:14:24;;;;;;;2.00;1.77;;;8.50;1.00;;;;;;4971800;28;20206;-74
2021/11/25 00:16:51;;;;;;;2.90;1.93;;;8.60;1.00;;;;;;4972405;28;20280;-71
2021/11/25 00:19:19;;;;;;;2.23;2.03;;;8.50;1.00;;;;;;4971885;28;20217;-68
2021/11/25 00:21:46;;;;;;;1.57;1.47;;;8.50;1.00;;;;;;4972395;28;20652;-74
2021/11/25 00:24:13;;;;;;;3.30;2.33;;;8.60;1.00;;;;;;4972158;28;20265;-68
2021/11/25 00:26:40;;;;;;;2.73;2.20;;;8.60;1.00;;;;;;4971601;28;20206;-74
2021/11/25 00:29:07;;;;;;;3.20;1.90;;;8.60;1.00;;;;;;4972173;28;20296;-67
2021/11/25 00:31:34;;;;;;;2.37;2.17;;;8.50;1.00;;;;;;4971339;28;20265;-68
2021/11/25 00:34:02;;;;;;;3.07;2.00;;;8.50;1.00;;;;;;4971946;28;20209;-68
2021/11/25 00:36:30;;;;;;;2.93;2.50;;;8.50;1.00;;;;;;4971490;28;20208;-73
2021/11/25 00:38:57;;;;;;;3.17;2.70;;;8.50;1.00;;;;;;4971827;28;20265;-68
2021/11/25 00:41:24;;;;;;;2.07;1.80;;;8.50;1.00;;;;;;4971352;28;20233;-74
2021/11/25 00:43:51;;;;;;;2.73;2.53;;;8.50;1.00;;;;;;4971945;28;20680;-68
2021/11/25 00:46:19;;;;;;;2.17;1.97;;;8.50;1.00;;;;;;4971605;28;20216;-68
2021/11/25 00:48:46;;;;;;;2.53;2.20;;;8.50;1.00;;;;;;4971954;28;20221;-74
2021/11/25 00:51:14;;;;;;;3.07;2.80;;;8.50;1.00;;;;;;4972144;28;20214;-69
2021/11/25 00:53:42;;;;;;;3.07;2.20;;;8.50;1.00;;;;;;4971044;28;20264;-72
2021/11/25 00:56:09;;;;;;;3.03;2.63;;;8.50;1.00;;;;;;4972103;28;20264;-75
2021/11/25 00:58:36;;;;;;;2.33;2.13;;;8.50;1.00;;;;;;4971252;28;20674;-74
2021/11/25 01:01:04;;;;;;;3.47;2.77;;;8.60;1.00;;;;;;4971222;28;20783;-74
2021/11/25 01:03:31;;;;;;;3.33;2.43;;;8.50;1.00;;;;;;4971459;28;20217;-70
2021/11/25 01:05:58;;;;;;;2.47;2.27;;;8.60;1.00;;;;;;4971481;28;20210;-69
2021/11/25 01:08:25;;;;;;;3.00;2.20;;;8.50;1.00;;;;;;4971410;28;20209;-69
2021/11/25 01:10:53;;;;;;;3.13;2.17;;;8.50;1.00;;;;;;4972200;28;20260;-69
2021/11/25 01:13:20;;;;;;;2.53;2.07;;;8.50;1.00;;;;;;4973431;28;20217;-69
2021/11/25 01:15:47;;;;;;;2.63;1.83;;;8.50;1.00;;;;;;4975011;28;20210;-70
2021/11/25 01:18:18;;;;;;;2.33;2.00;;;8.50;1.00;;;;;;4975582;28;20213;-72
2021/11/25 01:20:47;;;;;;;3.30;1.87;;;8.60;1.00;;;;;;4975259;28;20225;-73
2021/11/25 01:23:16;;;;;;;3.93;2.40;;;8.50;1.00;;;;;;4975370;28;20209;-73
2021/11/25 01:25:44;;;;;;;2.53;2.20;;;8.40;1.00;;;;;;4975812;28;20244;-73
2021/11/25 01:28:13;;;;;;;3.27;2.10;;;8.30;1.00;;;;;;4975293;28;20209;-69
2021/11/25 01:30:41;;;;;;;3.47;2.30;;;8.40;1.00;;;;;;4974458;28;20216;-75
2021/11/25 01:33:08;;;;;;;3.47;2.40;;;8.40;1.00;;;;;;4975060;28;20750;-68
2021/11/25 01:35:35;;;;;;;2.40;1.93;;;8.40;1.00;;;;;;4974861;28;20264;-74
2021/11/25 01:38:03;;;;;;;2.47;1.90;;;8.40;1.00;;;;;;4975300;28;20210;-76
2021/11/25 01:40:31;;;;;;;2.50;2.10;;;8.40;1.00;;;;;;4974516;28;20276;-79
2021/11/25 01:42:58;;;;;;;2.90;2.30;;;8.30;1.00;;;;;;4975216;28;20273;-75
2021/11/25 01:45:27;;;;;;;2.90;2.03;;;8.30;1.00;;;;;;4974360;28;20261;-72
2021/11/25 01:47:55;;;;;;;2.40;2.20;;;8.30;1.00;;;;;;4974533;28;20724;-75
2021/11/25 01:50:24;;;;;;;2.03;1.80;;;8.30;1.00;;;;;;4974108;28;20205;-74
2021/11/25 01:52:51;;;;;;;2.63;1.87;;;8.30;1.00;;;;;;4974671;28;20218;-67
2021/11/25 01:55:20;;;;;;;1.93;1.70;;;8.40;1.00;;;;;;4974784;28;20213;-67
2021/11/25 01:57:49;;;;;;;2.43;2.00;;;8.50;1.00;;;;;;4961442;28;20215;-67
2021/11/25 02:00:20;;;;;;;4.27;2.40;;;8.40;1.00;;;;;;4974596;28;20220;-67
2021/11/25 02:02:48;;;;;;;5.20;2.37;;;8.50;1.00;;;;;;4974762;28;20312;-67
2021/11/25 02:05:15;;;;;;;4.00;3.70;;;8.50;1.00;;;;;;4975048;28;20210;-75
2021/11/25 02:07:42;;;;;;;5.77;4.23;;;8.50;1.00;;;;;;4974423;28;20209;-68
2021/11/25 02:10:10;;;;;;;5.93;4.10;;;8.50;1.00;;;;;;4974672;28;20213;-73
2021/11/25 02:12:37;;;;;;;3.37;2.83;;;8.50;1.00;;;;;;4973915;28;20280;-74
2021/11/25 02:15:05;;;;;;;6.17;3.13;;;8.50;1.00;;;;;;4974227;28;20281;-75
2021/11/25 02:17:32;;;;;;;3.80;3.40;;;8.50;1.00;;;;;;4973957;28;20214;-75
2021/11/25 02:20:02;;;;;;;3.60;3.30;;;8.50;1.00;;;;;;4974493;28;20211;-75
2021/11/25 02:22:31;;;;;;;4.20;3.37;;;8.50;1.00;;;;;;4973510;28;20706;-76
2021/11/25 02:24:58;;;;;;;2.60;2.40;;;8.50;1.00;;;;;;4974158;28;20256;-79
2021/11/25 02:27:25;;;;;;;5.17;2.30;;;8.50;1.00;;;;;;4973894;28;20232;-67
2021/11/25 02:29:52;;;;;;;2.93;2.33;;;8.50;1.00;;;;;;4973880;28;20628;-71
2021/11/25 02:32:30;;;;;;;2.40;2.10;;;8.50;1.00;;;;;;4973783;28;20594;-68
2021/11/25 02:34:57;;;;;;;3.17;2.90;;;8.50;1.00;;;;;;4974020;28;20213;-72
2021/11/25 02:37:24;;;;;;;2.80;2.33;;;8.50;1.00;;;;;;4973546;28;20210;-72
2021/11/25 02:39:53;;;;;;;2.53;2.27;;;8.50;1.00;;;;;;4973834;28;20269;-69
2021/11/25 02:42:21;;;;;;;5.60;2.80;;;8.50;1.00;;;;;;4973489;28;20312;-69
2021/11/25 02:44:48;;;;;;;2.83;2.57;;;8.60;1.00;;;;;;4974139;28;20213;-72
2021/11/25 02:47:15;;;;;;;3.27;2.83;;;8.50;1.00;;;;;;4974286;28;20213;-73
2021/11/25 02:49:42;;;;;;;3.80;2.73;;;8.60;1.00;;;;;;4973614;28;20201;-71
2021/11/25 02:52:10;;;;;;;3.93;2.23;;;8.60;1.00;;;;;;4973783;28;20205;-72
2021/11/25 02:54:37;;;;;;;3.33;2.67;;;8.60;1.00;;;;;;4973147;28;20213;-71
2021/11/25 02:57:05;;;;;;;3.40;2.43;;;8.60;1.00;;;;;;4973416;28;20205;-72
2021/11/25 02:59:32;;;;;;;3.27;2.90;;;8.60;1.00;;;;;;4973630;28;20205;-71
2021/11/25 03:01:59;;;;;;;5.43;2.97;;;8.60;1.00;;;;;;4973505;28;20237;-71
2021/11/25 03:04:26;;;;;;;3.33;2.77;;;8.60;1.00;;;;;;4973388;28;20205;-72
2021/11/25 03:06:53;;;;;;;4.53;3.03;;;8.50;1.00;;;;;;4973254;28;20736;-71
2021/11/25 03:09:20;;;;;;;3.57;3.17;;;8.40;1.00;;;;;;4973160;28;20206;-71
2021/11/25 03:11:49;;;;;;;3.50;2.57;;;8.50;1.00;;;;;;4973447;28;20209;-71
2021/11/25 03:14:18;;;;;;;3.53;2.53;;;8.40;1.00;;;;;;4973565;28;20201;-71
2021/11/25 03:16:46;;;;;;;4.53;3.87;;;8.50;1.00;;;;;;4973460;28;20682;-72
2021/11/25 03:19:13;;;;;;;3.00;2.70;;;8.50;1.00;;;;;;4973505;28;20205;-72
2021/11/25 03:21:41;;;;;;;4.10;3.40;;;8.60;1.00;;;;;;4972377;28;20617;-72
2021/11/25 03:24:08;;;;;;;3.33;3.00;;;8.60;1.00;;;;;;4973285;28;20218;-72
2021/11/25 03:26:35;;;;;;;2.90;2.60;;;8.50;1.00;;;;;;4972461;28;20206;-72
2021/11/25 03:29:04;;;;;;;4.43;2.83;;;8.60;1.00;;;;;;4972974;28;20760;-71
2021/11/25 03:31:34;;;;;;;4.57;3.37;;;8.50;1.00;;;;;;4972532;28;20272;-74
2021/11/25 03:34:02;;;;;;;3.50;3.20;;;8.40;1.00;;;;;;4972431;28;20209;-72
2021/11/25 03:36:30;;;;;;;4.87;3.20;;;8.40;1.00;;;;;;4972539;28;20264;-72
2021/11/25 03:38:57;;;;;;;4.43;3.20;;;8.50;1.00;;;;;;4972889;28;20685;-74
2021/11/25 03:41:25;;;;;;;3.87;3.20;;;8.50;1.00;;;;;;4972326;28;20229;-70
2021/11/25 03:43:53;;;;;;;2.97;2.67;;;8.50;1.00;;;;;;4973018;28;20655;-70
2021/11/25 03:46:20;;;;;;;4.90;3.40;;;8.60;1.00;;;;;;4972170;28;20213;-69
2021/11/25 03:48:48;;;;;;;3.40;2.73;;;8.50;1.00;;;;;;4972623;28;20217;-69
2021/11/25 03:51:15;;;;;;;4.60;3.53;;;8.30;1.00;;;;;;4973202;28;20260;-73
2021/11/25 03:53:45;;;;;;;4.10;3.70;;;8.30;1.00;;;;;;4972430;28;20216;-69
2021/11/25 03:56:12;;;;;;;4.97;3.63;;;8.30;1.00;;;;;;4972586;28;20249;-75
2021/11/25 03:58:39;;;;;;;4.80;3.83;;;8.40;1.00;;;;;;4971819;28;20264;-75
2021/11/25 04:01:06;;;;;;;6.07;3.87;;;8.50;1.00;;;;;;4972193;28;20626;-68
2021/11/25 04:03:34;;;;;;;4.20;3.67;;;8.50;1.00;;;;;;4971884;28;20244;-75
2021/11/25 04:06:03;;;;;;;4.70;4.20;;;8.40;1.00;;;;;;4972512;28;20262;-76
2021/11/25 04:08:30;;;;;;;4.93;4.23;;;8.30;1.00;;;;;;4971907;28;20740;-68
2021/11/25 04:10:57;;;;;;;4.47;4.07;;;8.40;1.00;;;;;;4971853;28;20632;-77
2021/11/25 04:13:24;;;;;;;4.87;3.93;;;8.50;1.00;;;;;;4971843;28;20260;-68
2021/11/25 04:15:51;;;;;;;4.20;3.43;;;8.40;1.00;;;;;;4972150;28;20288;-75
2021/11/25 04:18:18;;;;;;;6.63;4.53;;;8.20;1.00;;;;;;4972164;28;20682;-69
2021/11/25 04:20:45;;;;;;;5.10;4.30;;;8.20;1.00;;;;;;4972393;28;20260;-77
2021/11/25 04:23:13;;;;;;;5.47;4.50;;;8.30;1.00;;;;;;4972276;28;20257;-73
2021/11/25 04:25:41;;;;;;;5.03;3.87;;;8.40;1.00;;;;;;4971772;28;20562;-71
2021/11/25 04:28:08;;;;;;;6.63;4.37;;;8.40;1.00;;;;;;4971652;28;20241;-70
2021/11/25 04:35:27;;;;;;;5.40;4.37;;;8.50;1.00;;;;;;4971822;28;20208;-71
2021/11/25 04:36:28;;;;;;;4.73;4.27;;;8.50;1.00;;;;;;4971277;28;20224;-71
2021/11/25 04:38:56;;;;;;;5.17;4.67;;;8.50;99.90;;;;;;4971398;28;20210;-70
2021/11/25 04:41:23;;;;;;;4.20;3.67;;;8.40;99.90;;;;;;4971414;28;20593;-71
2021/11/25 04:43:50;;;;;;;4.47;3.73;;;8.40;99.90;;;;;;4960602;28;20569;-71
2021/11/25 04:46:18;;;;;;;4.17;2.90;;;8.50;99.90;;;;;;4971884;28;20217;-71
2021/11/25 04:48:45;;;;;;;4.37;3.87;;;8.50;99.90;;;;;;4971833;28;20248;-71
2021/11/25 04:51:12;;;;;;;4.63;3.33;;;8.50;99.90;;;;;;4971528;28;20206;-71
2021/11/25 04:53:40;;;;;;;4.87;3.60;;;8.40;99.90;;;;;;4970854;28;20217;-71
2021/11/25 04:56:08;;;;;;;4.13;3.63;;;8.30;1.00;;;;;;4971944;28;20734;-71
2021/11/25 04:58:37;;;;;;;4.77;3.43;;;8.30;1.00;;;;;;4970850;28;20212;-71
2021/11/25 05:01:04;;;;;;;4.00;3.37;;;8.20;1.00;;;;;;4971690;28;20212;-71
2021/11/25 05:03:32;;;;;;;5.07;3.33;;;8.30;1.00;;;;;;4970784;28;20234;-70
2021/11/25 05:06:02;;;;;;;5.07;4.57;;;8.40;1.00;;;;;;4971403;28;20674;-70
2021/11/25 05:08:29;;;;;;;4.13;3.73;;;8.20;1.00;;;;;;4970714;28;20212;-71
2021/11/25 05:10:57;;;;;;;5.37;4.20;;;8.30;1.00;;;;;;4971099;28;20217;-71
2021/11/25 05:13:25;;;;;;;5.00;3.53;;;8.40;1.00;;;;;;4970923;28;20205;-70
2021/11/25 05:15:52;;;;;;;5.30;4.23;;;8.40;99.90;;;;;;4971475;28;20268;-71
2021/11/25 05:18:19;;;;;;;5.13;3.90;;;8.20;99.90;;;;;;4970934;28;20210;-71
2021/11/25 05:20:46;;;;;;;4.90;4.13;;;8.30;1.00;;;;;;4971481;28;20255;-71
2021/11/25 05:23:13;;;;;;;5.00;4.50;;;8.20;99.90;;;;;;4971381;28;20233;-71
2021/11/25 05:25:40;;;;;;;5.40;3.90;;;8.10;99.90;;;;;;4971127;28;20289;-71
2021/11/25 05:28:08;;;;;;;4.10;3.20;;;8.20;1.00;;;;;;4971218;28;20220;-71
2021/11/25 05:30:36;;;;;;;3.97;3.37;;;8.20;99.90;;;;;;4970567;28;20300;-71
2021/11/25 05:33:05;;;;;;;3.93;3.43;;;8.30;99.90;;;;;;4970857;28;20214;-71
2021/11/25 05:35:32;;;;;;;3.17;2.70;;;8.20;99.90;;;;;;4970546;28;20671;-71
2021/11/25 05:37:59;;;;;;;3.60;3.30;;;8.10;1.00;;;;;;4970849;28;20213;-70
2021/11/25 05:40:26;;;;;;;4.30;3.47;;;8.10;1.00;;;;;;4970535;28;20264;-69
2021/11/25 05:42:53;;;;;;;3.57;2.93;;;8.10;1.00;;;;;;4970651;28;20240;-70
2021/11/25 05:45:21;;;;;;;3.17;2.87;;;8.00;1.00;;;;;;4970413;28;20740;-72
2021/11/25 05:47:50;;;;;;;3.90;3.50;;;8.00;99.90;;;;;;4970615;28;20291;-70
2021/11/25 05:50:19;;;;;;;4.80;2.97;;;8.00;1.00;;;;;;4971281;28;20265;-71
2021/11/25 05:52:47;;;;;;;4.43;3.73;;;8.00;1.00;;;;;;4970822;28;20202;-70
2021/11/25 05:55:15;;;;;;;3.97;3.30;;;8.00;1.00;;;;;;4971018;28;20626;-69
2021/11/25 05:57:42;;;;;;;3.70;3.40;;;8.00;1.00;;;;;;4972513;28;20632;-69
2021/11/25 06:00:12;;;;;;;3.73;3.20;;;8.00;1.00;;;;;;4974615;28;20276;-70
2021/11/25 06:02:39;;;;;;;4.27;3.87;;;8.00;1.00;;;;;;4972325;28;20225;-72
2021/11/25 06:05:08;;;;;;;5.10;3.70;;;8.00;99.90;;;;;;4973038;28;20208;-71
2021/11/25 06:07:35;;;;;;;5.77;3.83;;;7.90;1.00;;;;;;4973863;28;20209;-70
2021/11/25 06:10:03;;;;;;;7.13;4.90;;;8.00;1.00;;;;;;4973906;28;20264;-70
2021/11/25 06:12:30;;;;;;;5.63;4.60;;;8.10;1.00;;;;;;4973625;28;20210;-73
2021/11/25 06:14:56;;;;;;;7.20;3.63;;;8.10;1.00;;;;;;4974633;28;20256;-71
2021/11/25 06:17:23;;;;;;;4.83;4.23;;;8.10;99.90;;;;;;4973814;28;20260;-72
2021/11/25 06:19:53;;;;;;;7.53;4.07;;;8.10;1.00;;;;;;4974063;28;20209;-72
2021/11/25 06:22:22;;;;;;;4.87;3.83;;;8.10;1.00;;;;;;4974160;28;20321;-68
2021/11/25 06:24:49;;;;;;;5.20;4.17;;;8.00;1.00;;;;;;4974470;28;20202;-68
2021/11/25 06:27:16;;;;;;;5.70;4.60;;;8.00;1.00;;;;;;4975185;28;20213;-85
2021/11/25 06:29:43;;;;;;;4.70;4.17;;;8.00;1.00;;;;;;4974623;28;20276;-85
2021/11/25 06:32:10;;;;;;;5.37;4.50;;;8.00;1.00;;;;;;4974702;28;20288;-68
2021/11/25 06:34:38;;;;;;;5.37;4.37;;;8.00;1.00;;;;;;4973858;28;20268;-76
2021/11/25 06:37:05;;;;;;;5.20;4.37;;;8.00;1.00;;;;;;4974322;28;20740;-69
2021/11/25 06:39:33;;;;;;;5.57;4.60;;;8.00;1.00;;;;;;4973909;28;20213;-69
2021/11/25 06:42:00;;;;;;;5.23;4.43;;;8.00;1.00;;;;;;4974108;28;20213;-83
2021/11/25 06:44:27;;;;;;;6.07;5.03;;;8.00;1.00;;;;;;4973972;28;20267;-83
2021/11/25 06:46:54;;;;;;;6.00;5.20;;;8.00;1.00;;;;;;4973997;28;20205;-84
2021/11/25 06:49:21;;;;;;;6.53;5.03;;;8.10;1.00;;;;;;4973802;28;20268;-68
2021/11/25 06:51:48;;;;;;;4.93;4.23;;;8.10;1.00;;;;;;4973672;28;20222;-68
2021/11/25 06:54:15;;;;;;;7.13;5.67;;;8.10;1.00;;;;;;4974172;28;20221;-77
2021/11/25 06:56:43;;;;;;;5.80;5.13;;;8.10;1.00;;;;;;4972677;28;20581;-68
2021/11/25 06:59:10;;;;;;;6.40;5.23;;;8.00;1.00;;;;;;4966131;28;20257;-84
2021/11/25 07:01:38;;;;;;;5.77;4.83;;;8.00;1.00;;;;;;4972577;28;20665;-68
2021/11/25 07:04:05;;;;;;;5.67;4.90;;;8.00;1.00;;;;;;4973031;28;20233;-84
2021/11/25 07:06:33;;;;;;;8.20;5.43;;;8.10;1.00;;;;;;4973190;28;20206;-85
2021/11/25 07:09:00;;;;;;;6.43;4.83;;;8.20;1.00;;;;;;4972429;28;20202;-81
2021/11/25 07:11:28;;;;;;;5.50;4.93;;;8.10;1.00;;;;;;4973067;28;20752;-84
2021/11/25 07:13:57;;;;;;;5.40;4.87;;;8.10;1.00;;;;;;4973802;28;20264;-68
2021/11/25 07:16:24;;;;;;;5.27;4.77;;;8.10;1.00;;;;;;4973119;28;20256;-78
2021/11/25 07:18:51;;;;;;;4.57;3.63;;;8.10;1.00;;;;;;4973121;28;20214;-68
2021/11/25 07:21:18;;;;;;;6.77;4.10;;;8.10;1.00;;;;;;4973131;28;20678;-68
2021/11/25 07:23:45;;;;;;;4.50;4.10;;;8.00;1.00;;;;;;4974038;28;20229;-69
2021/11/25 07:26:12;;;;;;;6.03;4.77;;;8.00;1.00;;;;;;4973290;28;20220;-68
2021/11/25 07:28:39;;;;;;;5.43;4.30;;;8.00;1.00;;;;;;4972131;28;20206;-67
2021/11/25 07:31:09;;;;;;;6.27;4.83;;;8.10;1.00;;;;;;4972318;28;20650;-86
2021/11/25 07:33:36;;;;;;;5.20;4.70;;;8.20;1.00;;;;;;4972874;28;20288;-87
2021/11/25 07:36:03;;;;;;;5.90;5.03;;;8.30;1.00;;;;;;4973746;28;20205;-88
2021/11/25 07:38:31;;;;;;;4.93;4.47;;;8.40;1.00;;;;;;4972574;28;20732;-88
2021/11/25 07:40:59;;;;;;;7.17;5.00;;;8.40;1.00;;;;;;4973144;28;20715;-88
2021/11/25 07:43:26;;;;;;;6.20;5.53;;;8.40;1.00;;;;;;4972911;28;20611;-87
2021/11/25 07:45:53;;;;;;;5.33;4.73;;;8.50;1.00;;;;;;4973750;28;20210;-89
2021/11/25 07:48:22;;;;;;;4.43;4.03;;;8.60;1.00;;;;;;4972307;28;20287;-68
2021/11/25 07:50:49;;;;;;;5.37;4.63;;;8.60;1.00;;;;;;4973049;28;20629;-68
2021/11/25 07:53:16;;;;;;;5.10;4.60;;;8.60;1.00;;;;;;4973280;28;20205;-68
2021/11/25 07:55:43;;;;;;;6.47;4.30;;;8.60;1.00;;;;;;4973059;28;20252;-90
2021/11/25 07:58:10;;;;;;;5.63;4.47;;;8.70;1.00;;;;;;4978483;28;20635;-87
2021/11/25 08:00:36;;;;;;;5.47;4.43;;;8.70;1.00;;;;;;4973032;28;20637;-68
2021/11/25 08:03:03;;;;;;;6.30;5.50;;;8.80;1.00;;;;;;4972566;28;20229;-85
2021/11/25 08:05:32;;;;;;;5.13;4.40;;;8.90;1.00;;;;;;4972330;28;20213;-89
2021/11/25 08:07:59;;;;;;;5.07;4.57;;;9.00;1.00;;;;;;4972902;28;20209;-88
2021/11/25 08:10:28;;;;;;;14.50;10.57;;;9.00;1.00;;;;;;4971951;28;20747;-86
2021/11/25 08:12:58;;;;;;;9.10;6.63;;;9.10;1.00;;;;;;4972757;28;20288;-69
2021/11/25 08:15:25;;;;;;;11.23;7.47;;;9.00;1.00;;;;;;4972307;28;20213;-68
2021/11/25 08:17:52;;;;;;;11.70;7.07;;;9.00;1.00;;;;;;4972537;28;20240;-88
2021/11/25 08:20:20;;;;;;;34.37;18.73;;;8.80;1.00;;;;;;4972182;28;20268;-68
2021/11/25 08:22:48;;;;;;;14.73;11.43;;;8.50;1.00;;;;;;4972017;28;20249;-69
2021/11/25 08:25:16;;;;;;;7.50;5.97;;;8.50;1.00;;;;;;4972938;28;20214;-68
2021/11/25 08:27:43;;;;;;;16.23;10.13;;;8.30;1.00;;;;;;4972491;28;20261;-87
2021/11/25 08:30:13;;;;;;;8.27;6.43;;;8.30;1.00;;;;;;4972294;28;20212;-87
2021/11/25 08:32:41;;;;;;;10.10;6.07;;;8.20;1.00;;;;;;4971893;28;20653;-67
2021/11/25 08:35:09;;;;;;;41.53;21.60;;;8.20;1.00;;;;;;4972373;28;20268;-88
2021/11/25 08:37:38;;;;;;;10.37;8.13;;;8.20;1.00;;;;;;4971919;28;20205;-68
2021/11/25 08:40:07;;;;;;;8.17;6.30;;;8.10;1.00;;;;;;4971818;28;20685;-68
2021/11/25 08:42:34;;;;;;;7.43;5.10;;;8.00;1.00;;;;;;4971815;28;20241;-80
2021/11/25 08:45:01;;;;;;;8.53;5.07;;;8.00;1.00;;;;;;4971657;28;20245;-67
2021/11/25 08:47:28;;;;;;;9.10;5.13;;;8.10;1.00;;;;;;4972035;28;20213;-86
2021/11/25 08:49:55;;;;;;;8.90;5.77;;;8.20;1.00;;;;;;4971938;28;20213;-68
2021/11/25 08:52:23;;;;;;;5.90;4.90;;;8.40;1.00;;;;;;4971833;28;20264;-76
2021/11/25 08:54:49;;;;;;;5.40;4.67;;;8.90;1.00;;;;;;4971994;28;20213;-67
2021/11/25 08:57:18;;;;;;;5.67;4.77;;;9.60;1.00;;;;;;4972199;28;20206;-67
2021/11/25 08:59:45;;;;;;;6.63;4.33;;;10.00;1.00;;;;;;4972465;28;20213;-67
2021/11/25 09:02:12;;;;;;;7.87;5.27;;;10.50;99.90;;;;;;4972635;28;20263;-86
2021/11/25 09:04:39;;;;;;;10.23;7.17;;;10.70;99.90;;;;;;4971775;28;20711;-86
2021/11/25 09:07:06;;;;;;;5.80;4.90;;;10.20;99.90;;;;;;4971693;28;20673;-81
2021/11/25 09:09:34;;;;;;;7.80;5.10;;;10.10;99.90;;;;;;4971725;28;20205;-73
2021/11/25 09:12:01;;;;;;;5.10;4.60;;;9.90;99.90;;;;;;4971989;28;20210;-68
2021/11/25 09:14:29;;;;;;;7.60;5.03;;;9.50;99.90;;;;;;4971425;28;20264;-84
2021/11/25 09:16:56;;;;;;;6.60;4.83;;;9.40;99.90;;;;;;4971812;28;20260;-68
2021/11/25 09:19:23;;;;;;;5.13;4.30;;;9.10;99.90;;;;;;4971590;28;20276;-67
2021/11/25 09:21:50;;;;;;;7.00;5.87;;;9.00;99.90;;;;;;4971323;28;20205;-67
2021/11/25 09:24:18;;;;;;;7.03;5.40;;;9.00;1.00;;;;;;4971857;28;20284;-68
2021/11/25 09:26:45;;;;;;;5.67;4.87;;;9.90;99.90;;;;;;4972005;28;20297;-67
2021/11/25 09:29:14;;;;;;;4.77;4.17;;;10.20;99.90;;;;;;4971664;28;20214;-67
2021/11/25 09:31:43;;;;;;;3.60;3.27;;;10.20;99.90;;;;;;4971560;28;20214;-83
2021/11/25 09:34:09;;;;;;;5.17;4.10;;;9.80;99.90;;;;;;4975258;28;20682;-82
2021/11/25 09:36:38;;;;;;;4.53;4.13;;;10.00;99.90;;;;;;4974657;28;20264;-69
2021/11/25 09:39:07;;;;;;;4.77;4.07;;;10.20;99.90;;;;;;4975497;28;20217;-72
2021/11/25 09:41:34;;;;;;;6.20;4.10;;;10.30;99.90;;;;;;4974661;28;20209;-81
2021/11/25 09:44:02;;;;;;;6.17;4.43;;;10.50;99.90;;;;;;4975228;28;20233;-81
2021/11/25 09:46:29;;;;;;;4.40;3.63;;;11.40;99.90;;;;;;4974581;28;20634;-67
2021/11/25 09:48:58;;;;;;;3.57;3.20;;;10.90;99.90;;;;;;4974728;28;20217;-68
2021/11/25 09:51:26;;;;;;;2.50;2.30;;;10.90;99.90;;;;;;4974569;28;20256;-67
2021/11/25 09:53:54;;;;;;;3.50;3.20;;;11.10;99.90;;;;;;4974583;28;20210;-81
2021/11/25 09:56:21;;;;;;;5.77;3.67;;;12.90;99.90;;;;;;4974710;28;20209;-68
2021/11/25 09:58:50;;;;;;;3.60;2.67;;;12.40;99.90;;;;;;4974526;28;20276;-68
2021/11/25 10:01:21;;;;;;;3.03;2.70;;;11.70;99.90;;;;;;4975148;28;20238;-67
2021/11/25 10:03:52;;;;;;;3.70;3.27;;;10.80;99.90;;;;;;4974428;28;20281;-75
2021/11/25 10:06:26;;;;;;;3.67;2.83;;;10.40;99.90;;;;;;4974701;28;20584;-69
2021/11/25 10:08:53;;;;;;;4.90;2.57;;;10.10;99.90;;;;;;4974668;28;20287;-67
2021/11/25 10:11:23;;;;;;;2.60;2.40;;;10.00;99.90;;;;;;4974378;28;20567;-76
2021/11/25 10:13:54;;;;;;;2.93;2.63;;;10.30;99.90;;;;;;4974075;28;20304;-67
2021/11/25 10:16:24;;;;;;;3.37;2.73;;;10.70;99.90;;;;;;4973852;28;20587;-80
2021/11/25 10:18:52;;;;;;;4.37;3.17;;;10.60;99.90;;;;;;4974391;28;20217;-67
2021/11/25 10:21:22;;;;;;;2.97;2.47;;;11.00;99.90;;;;;;4974311;28;20201;-70
2021/11/25 10:23:51;;;;;;;2.67;2.07;;;11.10;99.90;;;;;;4974135;28;20775;-67
2021/11/25 10:26:19;;;;;;;2.50;2.27;;;11.40;99.90;;;;;;4973717;28;20681;-77
2021/11/25 10:28:48;;;;;;;2.65;2.33;;;12.00;99.90;;;;;;4974201;28;20213;-71
2021/11/25 10:31:19;;;;;;;3.00;1.93;;;11.50;99.90;;;;;;4974263;28;20599;-68
2021/11/25 10:33:52;;;;;;;2.00;1.60;;;10.70;99.90;;;;;;4974243;28;20213;-81
2021/11/25 10:36:41;;;;;;;3.53;1.97;;;10.40;99.90;;;;;;4973924;28;20296;-67
2021/11/25 10:42:00;;;;;;;3.50;2.43;;;10.30;99.90;;;;;;4960178;28;20201;-77
2021/11/25 10:44:29;;;;;;;5.50;3.83;;;10.00;99.90;;;;;;4973778;28;20259;-67
2021/11/25 10:47:02;;;;;;;3.13;2.10;;;9.80;99.90;;;;;;4973618;28;20683;-80
2021/11/25 10:49:41;;;;;;;3.23;2.00;;;9.80;99.90;;;;;;4973428;28;20231;-77
2021/11/25 10:52:17;;;;;;;2.70;2.40;;;9.70;99.90;;;;;;4973782;28;20205;-67
2021/11/25 10:54:47;;;;;;;3.13;2.37;;;10.20;99.90;;;;;;4973885;28;20732;-81
2021/11/25 10:57:14;;;;;;;2.47;2.27;;;10.50;99.90;;;;;;4973638;28;20721;-80
2021/11/25 10:59:44;;;;;;;4.20;2.30;;;11.00;99.90;;;;;;4973146;28;20214;-67
2021/11/25 11:02:24;;;;;;;3.57;3.27;;;11.50;99.90;;;;;;4973223;28;20595;-70
2021/11/25 11:04:52;;;;;;;3.27;2.60;;;11.50;99.90;;;;;;4973603;28;20221;-67
2021/11/25 11:07:25;;;;;;;4.30;2.90;;;11.70;99.90;;;;;;4973313;28;20206;-67
2021/11/25 11:09:52;;;;;;;2.13;1.93;;;12.00;99.90;;;;;;4973440;28;20201;-80
2021/11/25 11:12:25;;;;;;;1.57;1.33;;;12.20;99.90;;;;;;4972797;28;20268;-67
2021/11/25 11:14:55;;;;;;;2.57;1.27;;;12.30;99.90;;;;;;4973657;28;20205;-78
2021/11/25 11:17:27;;;;;;;1.50;1.40;;;12.30;99.90;;;;;;4972988;28;20240;-69
2021/11/25 11:20:10;;;;;;;1.77;1.20;;;11.90;99.90;;;;;;4973281;28;20210;-80
2021/11/25 11:22:39;;;;;;;1.97;1.73;;;11.30;99.90;;;;;;4973009;28;20213;-67
2021/11/25 11:25:08;;;;;;;1.97;1.63;;;11.20;99.90;;;;;;4972808;28;20652;-69
2021/11/25 11:27:35;;;;;;;1.93;1.30;;;11.50;99.90;;;;;;4972671;28;20633;-67
2021/11/25 11:30:04;;;;;;;1.80;1.43;;;11.40;99.90;;;;;;4972775;28;20591;-67
2021/11/25 11:32:31;;;;;;;1.87;1.70;;;11.40;99.90;;;;;;4972558;28;20732;-80
2021/11/25 11:34:59;;;;;;;1.73;1.20;;;11.40;99.90;;;;;;4973025;28;20260;-67
2021/11/25 11:37:26;;;;;;;2.10;1.50;;;11.30;99.90;;;;;;4972423;28;20241;-67
2021/11/25 11:39:54;;;;;;;2.33;1.30;;;11.30;99.90;;;;;;4972885;28;20210;-68
2021/11/25 11:42:24;;;;;;;2.75;1.65;;;11.20;99.90;;;;;;4972700;28;20300;-69
2021/11/25 11:44:53;;;;;;;2.27;1.93;;;11.40;99.90;;;;;;4972419;28;20633;-68
2021/11/25 11:47:20;;;;;;;1.30;1.20;;;11.40;99.90;;;;;;4972409;28;20221;-68
2021/11/25 11:49:48;;;;;;;2.43;1.70;;;11.50;99.90;;;;;;4972792;28;20268;-68
2021/11/25 11:52:17;;;;;;;2.53;2.13;;;11.60;99.90;;;;;;4972704;28;20216;-71
2021/11/25 11:54:46;;;;;;;1.60;1.50;;;11.60;99.90;;;;;;4972292;28;20205;-80
2021/11/25 11:57:39;;;;;;;1.93;1.57;;;11.90;99.90;;;;;;4972823;28;20242;-68
2021/11/25 12:00:24;;;;;;;1.43;1.30;;;12.10;99.90;;;;;;4972428;28;20685;-76
2021/11/25 12:02:53;;;;;;;1.67;1.10;;;12.30;99.90;;;;;;4960696;28;20642;-84
2021/11/25 12:05:50;;;;;;;2.07;1.70;;;12.00;99.90;;;;;;4971959;28;20237;-67
2021/11/25 12:08:48;;;;;;;1.80;1.33;;;11.90;99.90;;;;;;4972506;28;20622;-68
2021/11/25 12:11:19;;;;;;;2.55;2.35;;;12.00;99.90;;;;;;4960587;28;20631;-68
2021/11/25 12:14:06;;;;;;;2.00;1.85;;;12.50;99.90;;;;;;4972486;28;20210;-81
2021/11/25 12:16:37;;;;;;;2.97;1.67;;;12.80;99.90;;;;;;4971849;28;20229;-68
2021/11/25 12:19:07;;;;;;;1.65;1.35;;;12.70;99.90;;;;;;4972195;28;20243;-68
2021/11/25 12:21:54;;;;;;;1.73;1.63;;;12.40;99.90;;;;;;4971605;28;20732;-80
2021/11/25 12:24:25;;;;;;;2.63;1.92;;;12.30;99.90;;;;;;4971811;28;20276;-67
2021/11/25 12:27:11;;;;;;;1.92;1.45;;;12.50;99.90;;;;;;4972341;28;20224;-68
2021/11/25 12:29:46;;;;;;;1.52;1.42;;;12.60;99.90;;;;;;4971355;28;20209;-68
2021/11/25 12:32:34;;;;;;;2.35;1.25;;;12.40;99.90;;;;;;4972520;28;20236;-68
2021/11/25 12:35:24;;;;;;;1.88;0.93;;;12.10;99.90;;;;;;4971836;28;20210;-80
2021/11/25 12:37:55;;;;;;;1.20;0.90;;;12.20;99.90;;;;;;4971587;28;20584;-68
2021/11/25 12:40:39;;;;;;;0.90;0.77;;;11.90;99.90;;;;;;4971615;28;20292;-67
2021/11/25 12:43:08;;;;;;;1.83;1.17;;;12.00;99.90;;;;;;4964113;28;20213;-79
2021/11/25 12:45:39;;;;;;;1.08;0.85;;;11.80;99.90;;;;;;4958260;28;20257;-80
2021/11/25 12:48:18;;;;;;;0.93;0.60;;;11.80;99.90;;;;;;4971940;28;20221;-80
2021/11/25 12:50:51;;;;;;;1.98;1.20;;;11.90;99.90;;;;;;4959806;28;20202;-67
2021/11/25 12:53:20;;;;;;;1.15;0.80;;;12.10;99.90;;;;;;4971612;28;20210;-68
2021/11/25 12:55:52;;;;;;;1.33;0.93;;;12.40;99.90;;;;;;4972230;28;20214;-67
2021/11/25 12:58:19;;;;;;;0.93;0.80;;;12.60;99.90;;;;;;4971402;28;20256;-68
2021/11/25 13:00:48;;;;;;;2.40;1.25;;;12.70;99.90;;;;;;4971884;28;20209;-78
2021/11/25 13:03:20;;;;;;;1.60;1.00;;;12.70;99.90;;;;;;4971956;28;20210;-78
2021/11/25 13:05:49;;;;;;;1.55;1.10;;;12.60;99.90;;;;;;4971452;28;20284;-68
2021/11/25 13:08:25;;;;;;;1.55;1.45;;;12.70;99.90;;;;;;4975077;28;20627;-68
2021/11/25 13:10:51;;;;;;;1.83;1.35;;;12.60;99.90;;;;;;4975617;28;20283;-79
2021/11/25 13:13:20;;;;;;;1.92;1.73;;;12.30;99.90;;;;;;4975583;28;20300;-67
2021/11/25 13:15:57;;;;;;;2.33;1.40;;;12.40;99.90;;;;;;4975522;28;20206;-68